Aviation Digital Data Service (ADDS)

Output produced by METARs form (0831 UTC 23 November 2014)
found at http://aviationweather.gov/adds/metars/
 
KLAS 230522Z 2306/2406 25010KT P6SM SCT250 
     FM230700 33010KT P6SM SCT250 
     FM230800 34012G20KT P6SM SCT250 
     FM231900 02010G16KT P6SM FEW250 
     FM240000 VRB06KT P6SM FEW250